Time;durP1;ratioP1;P1;durP2;ratioP2;P2;SDS_P1;SDS_P2;PMS_P1;PMS_P2;Temp;Humidity;BMP_temperature;BMP_pressure;BME280_temperature;BME280_humidity;BME280_pressure;Samples;Min_cycle;Max_cycle;Signal;HPM_P1;HPM_P2
2023/10/18 00:03:03;;;;;;;15.03;7.37;;;;;;;;;;6079429;23;20192;-92
2023/10/18 00:06:15;;;;;;;14.07;7.43;;;;;;;;;;6062198;23;20202;-92
2023/10/18 00:12:44;;;;;;;18.23;7.20;;;;;;;;;;6078201;23;20172;-92
2023/10/18 00:15:52;;;;;;;14.23;7.40;;;;;;;;;;6062887;23;20172;-93
2023/10/18 00:18:57;;;;;;;16.20;8.23;;;;;;;;;;6063619;23;20178;-93
2023/10/18 00:22:04;;;;;;;13.53;6.97;;;;;;;;;;6062708;23;20494;-92
2023/10/18 00:25:10;;;;;;;13.70;6.97;;;;;;;;;;6062775;23;20209;-92
2023/10/18 00:28:15;;;;;;;14.93;7.50;;;;;;;;;;6062906;23;20599;-91
2023/10/18 00:31:21;;;;;;;16.80;7.70;;;;;;;;;;6078495;23;20166;-92
2023/10/18 00:34:26;;;;;;;14.10;6.87;;;;;;;;;;6062028;23;20174;-92
2023/10/18 00:37:33;;;;;;;14.20;7.70;;;;;;;;;;6061162;23;20234;-92
2023/10/18 00:40:40;;;;;;;12.43;5.93;;;;;;;;;;6060497;23;20622;-93
2023/10/18 00:43:45;;;;;;;11.83;6.73;;;;;;;;;;6061196;23;20194;-92
2023/10/18 00:46:50;;;;;;;19.43;6.87;;;;;;;;;;6062273;23;20198;-92
2023/10/18 00:49:56;;;;;;;12.60;6.70;;;;;;;;;;6062341;23;20194;-93
2023/10/18 00:53:02;;;;;;;28.30;7.07;;;;;;;;;;6061765;23;20171;-91
2023/10/18 00:56:11;;;;;;;14.10;7.17;;;;;;;;;;6060336;23;20183;-91
2023/10/18 00:59:21;;;;;;;24.97;7.30;;;;;;;;;;6060953;23;20174;-91
2023/10/18 01:02:28;;;;;;;14.30;7.37;;;;;;;;;;6061834;23;20262;-92
2023/10/18 01:05:33;;;;;;;18.77;7.80;;;;;;;;;;6061469;23;20198;-93
2023/10/18 01:08:40;;;;;;;15.50;7.60;;;;;;;;;;6061536;23;20195;-91
2023/10/18 01:11:47;;;;;;;31.67;8.33;;;;;;;;;;6061972;23;20187;-91
2023/10/18 01:14:52;;;;;;;32.97;7.90;;;;;;;;;;6060617;23;20638;-91
2023/10/18 01:17:57;;;;;;;38.93;7.77;;;;;;;;;;6061705;23;20196;-93
2023/10/18 01:21:13;;;;;;;32.07;8.53;;;;;;;;;;6061728;23;20238;-92
2023/10/18 01:24:21;;;;;;;34.40;9.30;;;;;;;;;;6059896;23;20170;-92
2023/10/18 01:27:27;;;;;;;24.77;8.40;;;;;;;;;;6060794;23;20175;-93
2023/10/18 01:30:33;;;;;;;26.97;8.30;;;;;;;;;;6060279;23;20170;-91
2023/10/18 01:33:42;;;;;;;31.43;8.70;;;;;;;;;;6061163;23;20174;-94
2023/10/18 01:36:48;;;;;;;23.60;8.37;;;;;;;;;;6060629;23;20579;-92
2023/10/18 01:39:54;;;;;;;18.77;8.30;;;;;;;;;;6059985;23;20250;-93
2023/10/18 01:43:00;;;;;;;42.57;9.10;;;;;;;;;;6060991;23;20177;-92
2023/10/18 01:46:08;;;;;;;15.17;6.70;;;;;;;;;;6078474;23;20182;-94
2023/10/18 01:49:16;;;;;;;17.67;6.83;;;;;;;;;;6061155;23;20223;-93
2023/10/18 01:52:22;;;;;;;12.50;6.70;;;;;;;;;;6079084;23;20734;-90
2023/10/18 01:55:31;;;;;;;14.10;7.10;;;;;;;;;;6061241;23;20253;-93
2023/10/18 01:58:38;;;;;;;14.13;6.50;;;;;;;;;;6061492;23;20179;-94
2023/10/18 02:01:45;;;;;;;12.27;6.80;;;;;;;;;;6061861;23;20199;-93
2023/10/18 02:04:52;;;;;;;25.43;7.70;;;;;;;;;;6065758;23;20618;-94
2023/10/18 02:08:01;;;;;;;16.40;6.83;;;;;;;;;;6064163;23;20178;-90
2023/10/18 02:11:08;;;;;;;28.97;7.90;;;;;;;;;;6065009;23;20171;-94
2023/10/18 02:14:15;;;;;;;24.67;7.20;;;;;;;;;;6065128;23;20270;-92
2023/10/18 02:17:21;;;;;;;24.87;8.10;;;;;;;;;;6065711;23;20227;-93
2023/10/18 02:20:27;;;;;;;27.83;8.17;;;;;;;;;;6065487;23;20247;-90
2023/10/18 02:23:35;;;;;;;37.63;8.77;;;;;;;;;;6065492;23;20170;-90
2023/10/18 02:26:53;;;;;;;30.53;9.07;;;;;;;;;;6064326;23;20229;-92
2023/10/18 02:30:00;;;;;;;22.87;8.63;;;;;;;;;;6065830;23;20254;-89
2023/10/18 02:33:05;;;;;;;20.83;8.37;;;;;;;;;;6067073;23;20171;-91
2023/10/18 02:36:12;;;;;;;26.87;8.13;;;;;;;;;;6066268;23;20487;-92
2023/10/18 02:39:22;;;;;;;44.17;9.97;;;;;;;;;;6081986;23;20392;-93
2023/10/18 02:42:28;;;;;;;16.30;8.50;;;;;;;;;;6082598;23;20190;-94
2023/10/18 02:45:35;;;;;;;20.23;8.93;;;;;;;;;;6067304;23;20260;-91
2023/10/18 02:48:41;;;;;;;21.37;8.23;;;;;;;;;;6067660;23;20170;-92
2023/10/18 02:51:46;;;;;;;38.13;8.60;;;;;;;;;;6067617;23;20159;-92
2023/10/18 02:54:51;;;;;;;28.10;8.33;;;;;;;;;;6067855;23;20182;-93
2023/10/18 02:57:56;;;;;;;31.93;8.27;;;;;;;;;;6067285;23;20194;-91
2023/10/18 03:01:05;;;;;;;21.70;9.40;;;;;;;;;;6066400;23;20170;-92
2023/10/18 03:04:14;;;;;;;24.43;9.33;;;;;;;;;;6065708;23;20171;-93
2023/10/18 03:07:22;;;;;;;34.20;10.30;;;;;;;;;;6066414;23;20223;-95
2023/10/18 03:10:32;;;;;;;20.60;8.53;;;;;;;;;;6068130;23;20196;-94
2023/10/18 03:13:38;;;;;;;21.90;9.00;;;;;;;;;;6068949;23;20175;-95
2023/10/18 03:16:46;;;;;;;36.77;9.07;;;;;;;;;;6069050;23;20170;-91
2023/10/18 03:19:55;;;;;;;51.60;9.03;;;;;;;;;;6068086;23;20154;-93
2023/10/18 03:23:02;;;;;;;25.87;8.80;;;;;;;;;;6068633;23;20171;-92
2023/10/18 03:26:11;;;;;;;25.37;9.13;;;;;;;;;;6068284;23;20218;-94
2023/10/18 03:29:16;;;;;;;17.67;8.33;;;;;;;;;;6068067;23;20162;-94
2023/10/18 03:32:24;;;;;;;29.70;9.03;;;;;;;;;;6066028;23;20170;-93
2023/10/18 03:35:31;;;;;;;27.77;8.17;;;;;;;;;;6066886;23;20515;-93
2023/10/18 03:38:39;;;;;;;18.53;8.77;;;;;;;;;;6069253;23;20190;-90
2023/10/18 03:41:49;;;;;;;23.03;9.23;;;;;;;;;;6068280;23;20238;-92
2023/10/18 03:44:57;;;;;;;18.20;8.47;;;;;;;;;;6068349;23;20183;-91
2023/10/18 03:48:23;;;;;;;17.20;8.43;;;;;;;;;;6068373;23;20162;-94
2023/10/18 03:51:30;;;;;;;16.90;7.90;;;;;;;;;;6066740;23;20163;-92
2023/10/18 03:54:45;;;;;;;22.33;8.40;;;;;;;;;;6067385;23;20167;-92
2023/10/18 03:57:54;;;;;;;17.97;8.47;;;;;;;;;;6064913;23;20611;-91
2023/10/18 04:01:01;;;;;;;16.67;8.07;;;;;;;;;;6066744;23;20231;-91
2023/10/18 04:04:17;;;;;;;16.77;7.80;;;;;;;;;;6066094;23;20173;-91
2023/10/18 04:07:24;;;;;;;15.97;7.80;;;;;;;;;;6064375;23;20206;-92
2023/10/18 04:10:31;;;;;;;16.00;8.13;;;;;;;;;;6066725;23;20510;-91
2023/10/18 04:13:36;;;;;;;16.07;7.43;;;;;;;;;;6065438;23;20232;-94
2023/10/18 04:16:42;;;;;;;14.73;7.43;;;;;;;;;;6065076;23;20170;-93
2023/10/18 04:19:49;;;;;;;20.43;8.60;;;;;;;;;;6065205;23;20170;-90
2023/10/18 04:22:55;;;;;;;30.87;8.30;;;;;;;;;;6065387;23;20175;-93
2023/10/18 04:26:03;;;;;;;18.33;8.60;;;;;;;;;;6066298;23;20302;-91
2023/10/18 04:29:18;;;;;;;25.23;10.07;;;;;;;;;;6065299;23;20174;-92
2023/10/18 04:32:24;;;;;;;22.63;9.57;;;;;;;;;;6067684;23;20174;-92
2023/10/18 04:35:33;;;;;;;21.60;8.97;;;;;;;;;;6085454;23;20158;-90
2023/10/18 04:38:42;;;;;;;17.30;8.70;;;;;;;;;;6065756;23;20246;-91
2023/10/18 04:41:47;;;;;;;18.30;9.20;;;;;;;;;;6067130;23;20228;-91
2023/10/18 04:44:56;;;;;;;19.87;8.77;;;;;;;;;;6067278;23;20159;-92
2023/10/18 04:48:06;;;;;;;20.57;9.40;;;;;;;;;;6068948;23;20178;-92
2023/10/18 04:51:26;;;;;;;28.37;8.37;;;;;;;;;;6069506;23;20199;-92
2023/10/18 04:54:41;;;;;;;23.40;8.17;;;;;;;;;;6068025;23;20151;-91
2023/10/18 04:57:47;;;;;;;31.10;10.13;;;;;;;;;;6069049;23;20166;-92
2023/10/18 05:00:56;;;;;;;18.57;8.67;;;;;;;;;;6066674;23;20182;-92
2023/10/18 05:04:18;;;;;;;42.67;9.33;;;;;;;;;;6070545;23;20186;-92
2023/10/18 05:10:45;;;;;;;27.40;9.30;;;;;;;;;;6084767;23;20170;-92
2023/10/18 05:13:56;;;;;;;30.93;8.97;;;;;;;;;;6066100;23;20178;-90
2023/10/18 05:17:02;;;;;;;35.80;9.97;;;;;;;;;;6067148;23;20231;-92
2023/10/18 05:20:21;;;;;;;24.47;10.40;;;;;;;;;;6067784;23;20166;-91
2023/10/18 05:23:43;;;;;;;24.80;9.33;;;;;;;;;;6072607;23;20224;-91
2023/10/18 05:26:54;;;;;;;23.97;11.30;;;;;;;;;;6072470;23;20263;-91
2023/10/18 05:30:00;;;;;;;21.50;9.67;;;;;;;;;;6083579;23;20365;-92
2023/10/18 05:33:15;;;;;;;36.63;9.23;;;;;;;;;;6069163;23;20171;-90
2023/10/18 05:43:31;;;;;;;19.70;8.57;;;;;;;;;;6069653;23;20174;-91
2023/10/18 05:46:38;;;;;;;19.93;8.33;;;;;;;;;;6088694;23;20699;-90
2023/10/18 05:49:45;;;;;;;16.70;7.57;;;;;;;;;;6071605;23;20170;-92
2023/10/18 05:52:57;;;;;;;14.63;8.03;;;;;;;;;;6087959;23;20158;-90
2023/10/18 05:56:07;;;;;;;18.73;9.00;;;;;;;;;;6072576;23;20179;-90
2023/10/18 06:02:34;;;;;;;21.70;9.40;;;;;;;;;;6071712;23;20170;-89
2023/10/18 06:05:42;;;;;;;22.70;8.97;;;;;;;;;;6073366;23;20219;-91
2023/10/18 06:08:48;;;;;;;17.70;8.10;;;;;;;;;;6088327;23;20204;-92
2023/10/18 06:11:54;;;;;;;22.43;9.50;;;;;;;;;;6069184;23;20171;-91
2023/10/18 06:18:30;;;;;;;17.67;7.83;;;;;;;;;;6069605;23;20244;-90
2023/10/18 06:21:38;;;;;;;28.90;8.10;;;;;;;;;;6070154;23;20171;-91
2023/10/18 06:24:48;;;;;;;16.30;7.93;;;;;;;;;;6068363;23;20215;-93
2023/10/18 06:27:54;;;;;;;27.47;8.73;;;;;;;;;;6068469;23;20182;-92
2023/10/18 06:31:03;;;;;;;14.73;7.50;;;;;;;;;;6069131;23;20170;-91
2023/10/18 06:34:15;;;;;;;19.63;7.80;;;;;;;;;;6085771;23;20229;-89
2023/10/18 06:37:22;;;;;;;18.03;7.77;;;;;;;;;;6071044;23;20174;-91
2023/10/18 06:40:43;;;;;;;15.17;7.57;;;;;;;;;;6087766;23;20501;-88
2023/10/18 06:43:58;;;;;;;17.83;7.70;;;;;;;;;;6071589;23;20178;-89
2023/10/18 06:47:06;;;;;;;15.30;7.83;;;;;;;;;;6068285;23;20262;-89
2023/10/18 06:50:13;;;;;;;14.50;7.03;;;;;;;;;;6067412;23;20169;-92
2023/10/18 06:53:18;;;;;;;18.33;7.27;;;;;;;;;;6083695;23;20178;-91
2023/10/18 06:56:32;;;;;;;20.57;9.50;;;;;;;;;;6087941;23;20232;-91
2023/10/18 06:59:47;;;;;;;17.63;7.63;;;;;;;;;;6072379;23;20171;-92
2023/10/18 07:02:56;;;;;;;20.60;7.63;;;;;;;;;;6072621;23;20186;-92
2023/10/18 07:06:04;;;;;;;18.40;8.47;;;;;;;;;;6069592;23;20304;-91
2023/10/18 07:09:24;;;;;;;16.27;7.57;;;;;;;;;;6066063;23;20238;-89
2023/10/18 07:12:44;;;;;;;20.20;7.63;;;;;;;;;;6066663;23;20249;-87
2023/10/18 07:15:50;;;;;;;46.73;20.23;;;;;;;;;;6069514;23;20175;-92
2023/10/18 07:19:06;;;;;;;22.50;8.80;;;;;;;;;;6084726;23;20178;-90
2023/10/18 07:22:17;;;;;;;17.53;8.17;;;;;;;;;;6068230;23;20623;-89
2023/10/18 07:25:27;;;;;;;17.83;7.70;;;;;;;;;;6067608;23;20215;-91
2023/10/18 07:28:35;;;;;;;16.77;7.93;;;;;;;;;;6069163;23;20223;-90
2023/10/18 07:31:44;;;;;;;16.20;7.87;;;;;;;;;;6071162;23;20241;-91
2023/10/18 07:34:54;;;;;;;21.40;8.90;;;;;;;;;;6069498;23;20171;-91
2023/10/18 07:37:59;;;;;;;18.30;7.67;;;;;;;;;;6071767;23;20174;-91
2023/10/18 07:41:07;;;;;;;17.27;8.67;;;;;;;;;;6070123;23;20171;-91
2023/10/18 07:44:12;;;;;;;22.83;10.40;;;;;;;;;;6069303;23;20163;-91
2023/10/18 07:47:19;;;;;;;14.90;7.33;;;;;;;;;;6085483;23;20214;-92
2023/10/18 07:50:43;;;;;;;19.40;8.77;;;;;;;;;;6068376;23;20211;-92
2023/10/18 07:53:49;;;;;;;26.27;11.33;;;;;;;;;;6067662;23;20159;-94
2023/10/18 07:56:54;;;;;;;16.17;8.57;;;;;;;;;;6082064;23;20311;-92
2023/10/18 08:00:21;;;;;;;19.93;8.37;;;;;;;;;;6065776;23;20215;-91
2023/10/18 08:03:24;;;;;;;15.87;8.30;;;;;;;;;;6065905;23;20179;-93
2023/10/18 08:10:08;;;;;;;19.40;8.70;;;;;;;;;;6084763;23;20174;-91
2023/10/18 08:13:16;;;;;;;23.43;11.87;;;;;;;;;;6067630;23;20178;-92
2023/10/18 08:16:26;;;;;;;14.27;7.97;;;;;;;;;;6067332;23;20238;-92
2023/10/18 08:19:32;;;;;;;16.03;7.90;;;;;;;;;;6066642;23;20177;-90
2023/10/18 08:22:39;;;;;;;17.83;7.47;;;;;;;;;;6068341;23;20171;-91
2023/10/18 08:25:51;;;;;;;14.77;7.97;;;;;;;;;;6067424;23;20193;-92
2023/10/18 08:28:57;;;;;;;13.80;7.23;;;;;;;;;;6068058;23;20206;-92
2023/10/18 08:32:08;;;;;;;15.00;7.17;;;;;;;;;;6068453;23;20626;-92
2023/10/18 08:35:18;;;;;;;20.23;7.30;;;;;;;;;;6069621;23;20159;-91
2023/10/18 08:38:26;;;;;;;14.87;7.17;;;;;;;;;;6069107;23;20170;-91
2023/10/18 08:41:44;;;;;;;13.53;7.50;;;;;;;;;;6070411;23;20167;-91
2023/10/18 08:44:55;;;;;;;16.03;7.73;;;;;;;;;;6070326;23;20179;-92
2023/10/18 08:48:02;;;;;;;12.93;6.70;;;;;;;;;;6070445;23;20219;-92
2023/10/18 08:51:13;;;;;;;15.68;8.40;;;;;;;;;;6089442;23;20186;-92
2023/10/18 08:54:23;;;;;;;15.32;8.13;;;;;;;;;;6069081;23;20176;-92
2023/10/18 08:57:34;;;;;;;11.63;7.22;;;;;;;;;;6069165;23;20166;-91
2023/10/18 09:04:03;;;;;;;12.68;7.38;;;;;;;;;;6086750;23;20170;-92
2023/10/18 09:07:21;;;;;;;14.88;7.30;;;;;;;;;;6069415;23;20193;-91
2023/10/18 09:17:10;;;;;;;13.95;6.43;;;;;;;;;;6071534;23;20211;-91
2023/10/18 09:20:16;;;;;;;18.40;8.95;;;;;;;;;;6071021;23;20219;-91
2023/10/18 09:23:24;;;;;;;15.68;6.97;;;;;;;;;;6068810;23;20170;-91
2023/10/18 09:26:35;;;;;;;10.98;5.72;;;;;;;;;;6071123;23;20190;-90
2023/10/18 09:29:43;;;;;;;10.25;5.68;;;;;;;;;;6069638;23;20210;-91
2023/10/18 09:32:49;;;;;;;12.02;6.07;;;;;;;;;;6070518;23;20174;-92
2023/10/18 09:36:01;;;;;;;13.88;6.85;;;;;;;;;;6070722;23;20173;-93
2023/10/18 09:39:09;;;;;;;9.00;5.07;;;;;;;;;;6070090;23;20219;-93
2023/10/18 09:42:15;;;;;;;10.00;5.15;;;;;;;;;;6087184;23;20174;-92
2023/10/18 09:45:22;;;;;;;10.65;5.20;;;;;;;;;;6085393;23;20166;-93
2023/10/18 09:48:31;;;;;;;9.43;5.55;;;;;;;;;;6085873;23;20231;-92
2023/10/18 09:51:43;;;;;;;9.57;5.00;;;;;;;;;;6070198;23;20170;-92
2023/10/18 09:54:50;;;;;;;9.60;5.22;;;;;;;;;;6068635;23;20618;-93
2023/10/18 09:58:04;;;;;;;9.77;5.28;;;;;;;;;;6068849;23;20621;-91
2023/10/18 10:01:27;;;;;;;12.52;6.25;;;;;;;;;;6069297;23;20250;-92
2023/10/18 10:04:35;;;;;;;13.07;5.70;;;;;;;;;;6068541;23;20179;-90
2023/10/18 10:52:05;;;;;;;9.45;5.15;;;;;;;;;;6042105;23;20175;-90
2023/10/18 10:55:24;;;;;;;12.82;5.40;;;;;;;;;;6039538;23;20175;-91
2023/10/18 10:58:38;;;;;;;9.30;5.18;;;;;;;;;;6056213;23;20229;-91
2023/10/18 11:02:06;;;;;;;8.85;4.60;;;;;;;;;;6053090;23;20252;-91
2023/10/18 11:05:18;;;;;;;12.52;5.00;;;;;;;;;;6056183;23;20235;-92
2023/10/18 11:08:30;;;;;;;17.55;5.20;;;;;;;;;;6055223;23;20335;-91
2023/10/18 11:11:35;;;;;;;10.38;5.10;;;;;;;;;;6056927;23;20239;-93
2023/10/18 11:14:42;;;;;;;18.52;5.28;;;;;;;;;;6055579;23;20212;-92
2023/10/18 11:17:49;;;;;;;11.35;4.35;;;;;;;;;;6056485;23;20175;-95
2023/10/18 11:21:05;;;;;;;10.90;5.03;;;;;;;;;;6057227;23;20175;-92
2023/10/18 11:24:13;;;;;;;8.00;4.47;;;;;;;;;;6057344;23;20176;-91
2023/10/18 11:27:21;;;;;;;11.27;4.95;;;;;;;;;;6058628;23;20431;-92
2023/10/18 11:30:28;;;;;;;9.77;4.93;;;;;;;;;;6057695;23;20167;-92
2023/10/18 11:33:36;;;;;;;13.23;4.78;;;;;;;;;;6059611;23;20175;-92
2023/10/18 11:36:44;;;;;;;9.30;4.65;;;;;;;;;;6058402;23;20203;-93
2023/10/18 11:39:50;;;;;;;9.95;4.22;;;;;;;;;;6060059;23;20174;-92
2023/10/18 11:43:04;;;;;;;9.93;5.82;;;;;;;;;;6057560;23;20668;-91
2023/10/18 11:46:11;;;;;;;10.88;5.00;;;;;;;;;;6059078;23;20179;-93
2023/10/18 11:49:19;;;;;;;13.88;5.05;;;;;;;;;;6056628;23;20271;-92
2023/10/18 11:52:26;;;;;;;10.65;5.00;;;;;;;;;;6055365;23;20240;-92
2023/10/18 11:55:31;;;;;;;11.32;4.18;;;;;;;;;;6057535;23;20166;-93
2023/10/18 11:58:37;;;;;;;11.95;4.95;;;;;;;;;;6056813;23;20200;-92
2023/10/18 12:01:45;;;;;;;7.65;4.45;;;;;;;;;;6057318;23;20171;-92
2023/10/18 12:04:55;;;;;;;8.13;4.80;;;;;;;;;;6056926;23;20238;-93
2023/10/18 12:11:22;;;;;;;11.07;5.45;;;;;;;;;;6040049;23;20212;-92
2023/10/18 12:14:32;;;;;;;10.43;4.70;;;;;;;;;;6041446;23;20196;-92
2023/10/18 12:17:37;;;;;;;10.45;5.22;;;;;;;;;;6057929;23;20219;-92
2023/10/18 12:20:44;;;;;;;8.85;5.15;;;;;;;;;;6056095;23;20227;-93
2023/10/18 12:23:52;;;;;;;8.13;5.18;;;;;;;;;;6060671;23;20215;-92
2023/10/18 12:27:06;;;;;;;9.77;5.38;;;;;;;;;;6059018;23;20171;-91
2023/10/18 12:30:27;;;;;;;11.27;5.60;;;;;;;;;;6055600;23;20713;-93
2023/10/18 12:33:34;;;;;;;10.50;5.80;;;;;;;;;;6054048;23;20249;-93
2023/10/18 12:36:39;;;;;;;11.27;5.45;;;;;;;;;;6056799;23;20176;-92
2023/10/18 12:39:47;;;;;;;13.13;6.07;;;;;;;;;;6053898;23;20170;-92
2023/10/18 12:42:55;;;;;;;16.38;6.68;;;;;;;;;;6052653;23;20166;-90
2023/10/18 12:46:03;;;;;;;13.75;6.25;;;;;;;;;;6051022;23;20303;-92
2023/10/18 12:49:12;;;;;;;10.40;6.18;;;;;;;;;;6054101;23;20223;-93
2023/10/18 12:55:46;;;;;;;15.02;6.53;;;;;;;;;;6056602;23;20176;-88
2023/10/18 12:58:54;;;;;;;17.00;6.68;;;;;;;;;;6056177;23;20174;-92
2023/10/18 13:02:01;;;;;;;12.63;6.75;;;;;;;;;;6054401;23;20193;-95
2023/10/18 13:05:07;;;;;;;16.15;7.20;;;;;;;;;;6057121;23;20171;-92
2023/10/18 13:11:46;;;;;;;13.10;7.22;;;;;;;;;;6037035;23;20158;-93
2023/10/18 13:14:52;;;;;;;16.70;7.20;;;;;;;;;;6056825;23;20167;-94
2023/10/18 13:17:57;;;;;;;13.85;7.78;;;;;;;;;;6054775;23;20184;-90
2023/10/18 13:21:12;;;;;;;13.88;7.43;;;;;;;;;;6056729;23;20172;-93
2023/10/18 13:24:25;;;;;;;12.07;6.78;;;;;;;;;;6053728;23;20167;-95
2023/10/18 13:27:37;;;;;;;14.68;7.60;;;;;;;;;;6053292;23;20253;-93
2023/10/18 13:30:43;;;;;;;13.07;7.95;;;;;;;;;;6053183;23;20182;-93
2023/10/18 13:33:53;;;;;;;14.30;8.10;;;;;;;;;;6052739;23;20183;-93
2023/10/18 13:36:59;;;;;;;13.98;7.88;;;;;;;;;;6058549;23;20627;-93
2023/10/18 13:40:08;;;;;;;21.88;9.40;;;;;;;;;;6059874;23;20168;-92
2023/10/18 13:43:19;;;;;;;16.58;8.07;;;;;;;;;;6059181;23;20179;-91
2023/10/18 13:46:25;;;;;;;15.38;9.00;;;;;;;;;;6057682;23;20162;-93
2023/10/18 13:49:33;;;;;;;18.92;9.55;;;;;;;;;;6055785;23;20214;-92
2023/10/18 13:52:41;;;;;;;14.63;8.75;;;;;;;;;;6041319;23;20505;-92
2023/10/18 13:59:19;;;;;;;18.10;9.70;;;;;;;;;;6039523;23;20187;-94
2023/10/18 14:02:29;;;;;;;20.63;9.80;;;;;;;;;;6057213;23;20215;-92
2023/10/18 14:30:12;;;;;;;27.02;13.45;;;;;;;;;;6084812;23;20199;-93
2023/10/18 14:33:23;;;;;;;22.70;12.05;;;;;;;;;;6070158;23;20162;-94
2023/10/18 14:36:32;;;;;;;24.05;12.35;;;;;;;;;;6070280;23;20215;-94
2023/10/18 14:49:54;;;;;;;20.27;11.38;;;;;;;;;;6072081;23;20286;-93
2023/10/18 14:53:00;;;;;;;23.80;11.30;;;;;;;;;;6069393;23;20170;-92
2023/10/18 14:56:12;;;;;;;22.58;11.15;;;;;;;;;;6073885;23;20204;-92
2023/10/18 15:02:55;;;;;;;26.40;11.80;;;;;;;;;;6072974;23;20223;-93
2023/10/18 16:14:10;;;;;;;29.52;14.13;;;;;;;;;;6055869;23;20211;-91
2023/10/18 16:17:15;;;;;;;28.83;14.50;;;;;;;;;;6023848;23;20223;-93
2023/10/18 16:20:21;;;;;;;29.33;13.65;;;;;;;;;;6035767;23;20216;-90
2023/10/18 16:23:26;;;;;;;24.42;12.00;;;;;;;;;;6038520;23;20191;-93
2023/10/18 16:26:35;;;;;;;23.55;11.95;;;;;;;;;;6038311;23;20175;-93
2023/10/18 16:29:42;;;;;;;25.30;11.95;;;;;;;;;;6039509;23;20243;-93
2023/10/18 16:32:48;;;;;;;28.00;13.02;;;;;;;;;;6040205;23;20220;-94
2023/10/18 16:39:18;;;;;;;30.35;14.55;;;;;;;;;;6041720;23;20234;-94
2023/10/18 16:42:24;;;;;;;25.95;13.65;;;;;;;;;;6039525;23;20178;-94
2023/10/18 16:45:35;;;;;;;30.20;14.07;;;;;;;;;;6039759;23;20179;-93
2023/10/18 16:48:46;;;;;;;30.52;15.07;;;;;;;;;;6040173;23;20225;-91
2023/10/18 16:51:53;;;;;;;33.10;17.02;;;;;;;;;;6039049;23;20159;-94
2023/10/18 16:54:58;;;;;;;31.05;15.18;;;;;;;;;;6038080;23;20224;-93
2023/10/18 16:58:05;;;;;;;37.92;15.80;;;;;;;;;;6036580;23;20171;-92
2023/10/18 17:01:16;;;;;;;33.67;15.77;;;;;;;;;;6055500;23;20155;-91
2023/10/18 17:04:23;;;;;;;36.45;17.60;;;;;;;;;;6039002;23;20509;-92
2023/10/18 17:07:29;;;;;;;35.90;15.80;;;;;;;;;;6039317;23;20175;-94
2023/10/18 17:10:35;;;;;;;34.03;15.43;;;;;;;;;;6038707;23;20202;-93
2023/10/18 17:13:42;;;;;;;39.15;16.63;;;;;;;;;;6038580;23;20225;-93
2023/10/18 17:16:51;;;;;;;40.90;18.40;;;;;;;;;;6037086;23;20220;-94
2023/10/18 17:19:56;;;;;;;41.28;19.70;;;;;;;;;;6038207;23;20499;-92
2023/10/18 17:23:03;;;;;;;40.03;19.92;;;;;;;;;;6037939;23;20166;-94
2023/10/18 18:13:06;;;;;;;43.33;19.17;;;;;;;;;;6040881;23;20215;-92
2023/10/18 18:16:14;;;;;;;41.28;18.52;;;;;;;;;;6072278;23;20171;-91
2023/10/18 18:19:21;;;;;;;44.38;20.67;;;;;;;;;;6087890;23;20170;-92
2023/10/18 18:22:27;;;;;;;44.35;20.90;;;;;;;;;;6088995;23;20178;-91
2023/10/18 18:25:34;;;;;;;49.90;20.65;;;;;;;;;;6086643;23;20207;-92
2023/10/18 18:28:42;;;;;;;48.30;20.10;;;;;;;;;;6069755;23;20173;-91
2023/10/18 18:31:47;;;;;;;42.63;20.88;;;;;;;;;;6088379;23;20171;-93
2023/10/18 18:35:01;;;;;;;49.38;21.20;;;;;;;;;;6071771;23;20239;-90
2023/10/18 18:38:15;;;;;;;45.90;21.70;;;;;;;;;;6073704;23;20235;-90
2023/10/18 18:41:27;;;;;;;52.40;23.45;;;;;;;;;;6087259;23;20163;-92
2023/10/18 18:44:34;;;;;;;51.13;22.08;;;;;;;;;;6088765;23;20192;-93
2023/10/18 18:47:41;;;;;;;57.10;25.13;;;;;;;;;;6087900;23;20162;-91
2023/10/18 18:50:46;;;;;;;58.35;25.38;;;;;;;;;;6086117;23;20274;-91
2023/10/18 18:53:54;;;;;;;51.10;21.73;;;;;;;;;;6070731;23;20599;-93
2023/10/18 18:57:04;;;;;;;37.55;18.42;;;;;;;;;;6070066;23;20251;-92
2023/10/18 19:00:15;;;;;;;42.60;19.90;;;;;;;;;;6088057;23;20166;-93
2023/10/18 19:03:22;;;;;;;39.28;19.40;;;;;;;;;;6087584;23;20207;-91
2023/10/18 19:06:30;;;;;;;40.22;18.70;;;;;;;;;;6085101;23;20167;-93
2023/10/18 19:12:37;;;;;;;36.17;17.13;;;;;;;;;;6089227;23;20266;-94
2023/10/18 19:15:46;;;;;;;37.33;17.42;;;;;;;;;;6072746;23;20179;-92
2023/10/18 19:19:13;;;;;;;35.05;17.15;;;;;;;;;;6069492;23;20167;-92
2023/10/18 19:22:20;;;;;;;35.92;17.50;;;;;;;;;;6073213;23;20172;-92
2023/10/18 19:25:31;;;;;;;38.10;17.95;;;;;;;;;;6072143;23;20170;-91
2023/10/18 19:28:37;;;;;;;34.22;17.20;;;;;;;;;;6072554;23;20204;-92
2023/10/18 19:31:49;;;;;;;36.35;16.95;;;;;;;;;;6072287;23;20274;-94
2023/10/18 19:34:55;;;;;;;36.30;18.30;;;;;;;;;;6071853;23;20230;-90
2023/10/18 19:38:03;;;;;;;37.70;16.77;;;;;;;;;;6070910;23;20170;-92
2023/10/18 19:41:09;;;;;;;36.47;18.05;;;;;;;;;;6071888;23;20178;-91
2023/10/18 19:53:11;;;;;;;35.38;16.60;;;;;;;;;;6080148;23;20231;-93
2023/10/18 19:56:18;;;;;;;32.95;16.48;;;;;;;;;;6087615;23;20207;-94
2023/10/18 19:59:24;;;;;;;33.17;15.48;;;;;;;;;;6083459;23;20174;-93
2023/10/18 20:02:30;;;;;;;33.00;15.70;;;;;;;;;;6074968;23;20170;-92
2023/10/18 20:05:36;;;;;;;30.52;15.73;;;;;;;;;;6085707;23;20181;-93
2023/10/18 20:08:44;;;;;;;30.80;15.38;;;;;;;;;;6066910;23;20167;-93
2023/10/18 20:11:49;;;;;;;31.05;15.93;;;;;;;;;;6083789;23;20255;-94
2023/10/18 20:14:54;;;;;;;37.70;17.05;;;;;;;;;;6084035;23;20179;-94
2023/10/18 20:18:00;;;;;;;33.83;16.98;;;;;;;;;;6067204;23;20195;-93
2023/10/18 20:21:07;;;;;;;38.13;18.50;;;;;;;;;;6083104;23;20221;-93
2023/10/18 20:24:14;;;;;;;44.17;20.35;;;;;;;;;;6083991;23;20170;-93
2023/10/18 20:27:19;;;;;;;38.97;19.08;;;;;;;;;;6081739;23;20170;-94
2023/10/18 20:30:25;;;;;;;40.95;20.25;;;;;;;;;;6080290;23;20210;-92
2023/10/18 20:33:30;;;;;;;39.97;18.30;;;;;;;;;;6081170;23;20645;-94
2023/10/18 20:36:36;;;;;;;40.00;19.23;;;;;;;;;;6082005;23;20154;-90
2023/10/18 20:39:43;;;;;;;36.00;18.85;;;;;;;;;;6081976;23;20174;-93
2023/10/18 20:42:49;;;;;;;39.17;19.38;;;;;;;;;;6082948;23;20243;-93
2023/10/18 20:46:03;;;;;;;38.03;17.98;;;;;;;;;;6066436;23;20167;-93
2023/10/18 20:49:09;;;;;;;37.47;17.85;;;;;;;;;;6066176;23;20155;-93
2023/10/18 20:52:15;;;;;;;35.50;17.65;;;;;;;;;;6068785;23;20234;-93
2023/10/18 20:55:28;;;;;;;33.75;17.13;;;;;;;;;;6083942;23;20187;-92
2023/10/18 20:58:33;;;;;;;36.72;16.75;;;;;;;;;;6064679;23;20170;-93
2023/10/18 21:01:40;;;;;;;32.67;17.35;;;;;;;;;;6081789;23;20170;-91
2023/10/18 21:04:47;;;;;;;36.45;17.83;;;;;;;;;;6065785;23;20174;-92
2023/10/18 21:07:52;;;;;;;43.15;19.52;;;;;;;;;;6063577;23;20206;-91
2023/10/18 21:11:22;;;;;;;43.83;19.67;;;;;;;;;;6066775;23;20198;-91
2023/10/18 21:14:28;;;;;;;39.85;17.98;;;;;;;;;;6065522;23;20167;-93
2023/10/18 21:17:34;;;;;;;47.55;20.40;;;;;;;;;;6080810;23;20188;-92
2023/10/18 21:20:39;;;;;;;33.45;17.13;;;;;;;;;;6081700;23;20178;-93
2023/10/18 21:23:45;;;;;;;30.88;15.95;;;;;;;;;;6082460;23;20173;-93
2023/10/18 21:26:51;;;;;;;30.85;15.35;;;;;;;;;;6083431;23;20610;-93
2023/10/18 21:29:58;;;;;;;34.58;15.88;;;;;;;;;;6066830;23;20348;-93
2023/10/18 21:33:04;;;;;;;31.05;15.48;;;;;;;;;;6066657;23;20500;-93
2023/10/18 21:36:10;;;;;;;39.63;16.00;;;;;;;;;;6083667;23;20215;-94
2023/10/18 21:39:16;;;;;;;35.63;15.77;;;;;;;;;;6067659;23;20187;-93
2023/10/18 21:42:21;;;;;;;34.88;16.27;;;;;;;;;;6081317;23;20163;-92
2023/10/18 21:45:27;;;;;;;36.70;15.65;;;;;;;;;;6082699;23;20166;-94
2023/10/18 21:48:34;;;;;;;33.88;16.85;;;;;;;;;;6082327;23;20173;-92
2023/10/18 21:51:40;;;;;;;35.25;16.38;;;;;;;;;;6079149;23;20210;-93
2023/10/18 21:54:45;;;;;;;32.50;16.35;;;;;;;;;;6078915;23;20219;-93
2023/10/18 21:57:51;;;;;;;30.17;15.73;;;;;;;;;;6079483;23;20250;-94
2023/10/18 22:01:02;;;;;;;32.60;15.93;;;;;;;;;;6063967;23;20215;-93
2023/10/18 22:04:08;;;;;;;36.42;17.02;;;;;;;;;;6063723;23;20175;-94
2023/10/18 22:07:17;;;;;;;32.67;16.40;;;;;;;;;;6082352;23;20167;-95
2023/10/18 22:10:23;;;;;;;33.50;16.25;;;;;;;;;;6066088;23;20304;-93
2023/10/18 22:13:31;;;;;;;33.80;16.70;;;;;;;;;;6066480;23;20162;-93
2023/10/18 22:16:38;;;;;;;33.45;16.10;;;;;;;;;;6082441;23;20180;-93
2023/10/18 22:19:50;;;;;;;33.20;16.23;;;;;;;;;;6082801;23;20170;-93
2023/10/18 22:22:57;;;;;;;33.35;15.25;;;;;;;;;;6081100;23;20171;-94
2023/10/18 22:26:04;;;;;;;31.88;14.73;;;;;;;;;;6081517;23;20174;-92
2023/10/18 22:29:09;;;;;;;32.65;15.48;;;;;;;;;;6064766;23;20170;-93
2023/10/18 22:32:18;;;;;;;32.85;15.68;;;;;;;;;;6081143;23;20171;-92
2023/10/18 22:35:23;;;;;;;36.42;15.35;;;;;;;;;;6078761;23;20210;-92
2023/10/18 22:38:32;;;;;;;36.45;14.88;;;;;;;;;;6079542;23;20240;-92
2023/10/18 22:41:46;;;;;;;29.33;14.68;;;;;;;;;;6063497;23;20178;-93
2023/10/18 22:45:08;;;;;;;29.90;14.25;;;;;;;;;;6063707;23;20622;-92
2023/10/18 22:48:22;;;;;;;31.58;14.82;;;;;;;;;;6081357;23;20171;-93
2023/10/18 22:51:33;;;;;;;32.83;15.52;;;;;;;;;;6079282;23;20194;-93